sensor_id;sensor_type;location;lat;lon;timestamp;temperature;humidity
20349;DHT22;10332;50.208;18.988;2023-11-18T00:02:01;5.00;1.00
20349;DHT22;10332;50.208;18.988;2023-11-18T00:04:29;5.00;1.00
20349;DHT22;10332;50.208;18.988;2023-11-18T00:06:56;5.10;1.00
20349;DHT22;10332;50.208;18.988;2023-11-18T00:09:25;5.00;1.00
20349;DHT22;10332;50.208;18.988;2023-11-18T00:11:53;5.00;1.00
20349;DHT22;10332;50.208;18.988;2023-11-18T00:14:20;5.00;1.00
20349;DHT22;10332;50.208;18.988;2023-11-18T00:16:48;5.00;1.00
20349;DHT22;10332;50.208;18.988;2023-11-18T00:19:16;5.00;1.00
20349;DHT22;10332;50.208;18.988;2023-11-18T00:21:44;5.00;1.00
20349;DHT22;10332;50.208;18.988;2023-11-18T00:24:12;5.00;1.00
20349;DHT22;10332;50.208;18.988;2023-11-18T00:26:41;5.10;1.00
20349;DHT22;10332;50.208;18.988;2023-11-18T00:29:09;5.10;1.00
20349;DHT22;10332;50.208;18.988;2023-11-18T00:31:36;5.10;1.00
20349;DHT22;10332;50.208;18.988;2023-11-18T00:34:04;5.10;1.00
20349;DHT22;10332;50.208;18.988;2023-11-18T00:36:31;5.10;1.00
20349;DHT22;10332;50.208;18.988;2023-11-18T00:38:59;5.10;1.00
20349;DHT22;10332;50.208;18.988;2023-11-18T00:41:26;5.10;1.00
20349;DHT22;10332;50.208;18.988;2023-11-18T00:43:53;5.10;1.00
20349;DHT22;10332;50.208;18.988;2023-11-18T00:46:21;5.10;1.00
20349;DHT22;10332;50.208;18.988;2023-11-18T00:48:49;5.00;1.00
20349;DHT22;10332;50.208;18.988;2023-11-18T00:51:17;5.00;1.00
20349;DHT22;10332;50.208;18.988;2023-11-18T00:53:45;5.00;1.00
20349;DHT22;10332;50.208;18.988;2023-11-18T00:56:15;5.00;1.00
20349;DHT22;10332;50.208;18.988;2023-11-18T00:58:45;5.00;1.00
20349;DHT22;10332;50.208;18.988;2023-11-18T01:01:12;5.00;1.00
20349;DHT22;10332;50.208;18.988;2023-11-18T01:03:39;5.00;1.00
20349;DHT22;10332;50.208;18.988;2023-11-18T01:06:07;5.00;1.00
20349;DHT22;10332;50.208;18.988;2023-11-18T01:08:34;5.00;1.00
20349;DHT22;10332;50.208;18.988;2023-11-18T01:11:02;5.00;1.00
20349;DHT22;10332;50.208;18.988;2023-11-18T01:13:31;5.10;1.00
20349;DHT22;10332;50.208;18.988;2023-11-18T01:15:58;5.00;1.00
20349;DHT22;10332;50.208;18.988;2023-11-18T01:18:26;5.00;1.00
20349;DHT22;10332;50.208;18.988;2023-11-18T01:20:54;5.00;1.00
20349;DHT22;10332;50.208;18.988;2023-11-18T01:23:21;5.00;1.00
20349;DHT22;10332;50.208;18.988;2023-11-18T01:25:48;4.90;1.00
20349;DHT22;10332;50.208;18.988;2023-11-18T01:28:18;5.00;1.00
20349;DHT22;10332;50.208;18.988;2023-11-18T01:30:45;5.00;1.00
20349;DHT22;10332;50.208;18.988;2023-11-18T01:33:12;5.00;1.00
20349;DHT22;10332;50.208;18.988;2023-11-18T01:35:42;5.10;1.00
20349;DHT22;10332;50.208;18.988;2023-11-18T01:38:10;5.00;1.00
20349;DHT22;10332;50.208;18.988;2023-11-18T01:40:39;5.00;1.00
20349;DHT22;10332;50.208;18.988;2023-11-18T01:43:09;5.00;1.00
20349;DHT22;10332;50.208;18.988;2023-11-18T01:45:40;4.90;1.00
20349;DHT22;10332;50.208;18.988;2023-11-18T01:48:09;4.90;1.00
20349;DHT22;10332;50.208;18.988;2023-11-18T01:50:44;4.90;1.00
20349;DHT22;10332;50.208;18.988;2023-11-18T01:53:11;4.90;1.00
20349;DHT22;10332;50.208;18.988;2023-11-18T01:55:42;4.80;1.00
20349;DHT22;10332;50.208;18.988;2023-11-18T01:58:09;4.90;1.00
20349;DHT22;10332;50.208;18.988;2023-11-18T02:00:39;4.80;1.00
20349;DHT22;10332;50.208;18.988;2023-11-18T02:03:08;4.80;1.00
20349;DHT22;10332;50.208;18.988;2023-11-18T02:05:36;4.90;1.00
20349;DHT22;10332;50.208;18.988;2023-11-18T02:08:05;4.80;1.00
20349;DHT22;10332;50.208;18.988;2023-11-18T02:10:46;4.80;1.00
20349;DHT22;10332;50.208;18.988;2023-11-18T02:13:23;4.70;1.00
20349;DHT22;10332;50.208;18.988;2023-11-18T02:15:55;4.70;1.00
20349;DHT22;10332;50.208;18.988;2023-11-18T02:18:31;4.80;1.00
20349;DHT22;10332;50.208;18.988;2023-11-18T02:20:59;4.70;1.00
20349;DHT22;10332;50.208;18.988;2023-11-18T02:23:26;4.70;1.00
20349;DHT22;10332;50.208;18.988;2023-11-18T02:25:55;4.70;1.00
20349;DHT22;10332;50.208;18.988;2023-11-18T02:28:22;4.80;1.00
20349;DHT22;10332;50.208;18.988;2023-11-18T02:30:56;4.80;1.00
20349;DHT22;10332;50.208;18.988;2023-11-18T02:33:36;4.80;1.00
20349;DHT22;10332;50.208;18.988;2023-11-18T02:36:24;4.80;1.00
20349;DHT22;10332;50.208;18.988;2023-11-18T02:38:53;4.80;1.00
20349;DHT22;10332;50.208;18.988;2023-11-18T02:41:22;4.80;1.00
20349;DHT22;10332;50.208;18.988;2023-11-18T02:43:50;4.80;1.00
20349;DHT22;10332;50.208;18.988;2023-11-18T02:46:18;4.80;1.00
20349;DHT22;10332;50.208;18.988;2023-11-18T02:48:47;4.80;1.00
20349;DHT22;10332;50.208;18.988;2023-11-18T02:51:14;4.80;1.00
20349;DHT22;10332;50.208;18.988;2023-11-18T02:53:43;4.70;1.00
20349;DHT22;10332;50.208;18.988;2023-11-18T02:56:12;4.70;1.00
20349;DHT22;10332;50.208;18.988;2023-11-18T02:58:39;4.70;1.00
20349;DHT22;10332;50.208;18.988;2023-11-18T03:01:07;4.80;1.00
20349;DHT22;10332;50.208;18.988;2023-11-18T03:03:34;4.80;1.00
20349;DHT22;10332;50.208;18.988;2023-11-18T03:06:02;4.80;1.00
20349;DHT22;10332;50.208;18.988;2023-11-18T03:08:30;4.80;1.00
20349;DHT22;10332;50.208;18.988;2023-11-18T03:10:58;4.80;1.00
20349;DHT22;10332;50.208;18.988;2023-11-18T03:13:25;4.90;1.00
20349;DHT22;10332;50.208;18.988;2023-11-18T03:15:53;4.80;1.00
20349;DHT22;10332;50.208;18.988;2023-11-18T03:18:20;4.90;1.00
20349;DHT22;10332;50.208;18.988;2023-11-18T03:20:49;4.90;1.00
20349;DHT22;10332;50.208;18.988;2023-11-18T03:23:16;4.90;1.00
20349;DHT22;10332;50.208;18.988;2023-11-18T03:25:45;4.90;1.00
20349;DHT22;10332;50.208;18.988;2023-11-18T03:28:13;4.90;1.00
20349;DHT22;10332;50.208;18.988;2023-11-18T03:30:41;4.90;1.00
20349;DHT22;10332;50.208;18.988;2023-11-18T03:33:09;5.00;1.00
20349;DHT22;10332;50.208;18.988;2023-11-18T03:35:38;5.00;1.00
20349;DHT22;10332;50.208;18.988;2023-11-18T03:38:05;5.00;1.00
20349;DHT22;10332;50.208;18.988;2023-11-18T03:40:33;5.00;1.00
20349;DHT22;10332;50.208;18.988;2023-11-18T03:43:02;5.00;1.00
20349;DHT22;10332;50.208;18.988;2023-11-18T03:45:30;5.00;1.00
20349;DHT22;10332;50.208;18.988;2023-11-18T03:47:57;4.90;1.00
20349;DHT22;10332;50.208;18.988;2023-11-18T03:50:25;4.90;1.00
20349;DHT22;10332;50.208;18.988;2023-11-18T03:52:53;4.90;1.00
20349;DHT22;10332;50.208;18.988;2023-11-18T03:55:21;4.90;1.00
20349;DHT22;10332;50.208;18.988;2023-11-18T03:57:48;4.90;1.00
20349;DHT22;10332;50.208;18.988;2023-11-18T04:00:16;4.90;1.00
20349;DHT22;10332;50.208;18.988;2023-11-18T04:02:45;4.90;1.00
20349;DHT22;10332;50.208;18.988;2023-11-18T04:05:13;4.90;1.00
20349;DHT22;10332;50.208;18.988;2023-11-18T04:07:41;4.80;1.00
20349;DHT22;10332;50.208;18.988;2023-11-18T04:10:09;4.80;1.00
20349;DHT22;10332;50.208;18.988;2023-11-18T04:12:37;4.90;1.00
20349;DHT22;10332;50.208;18.988;2023-11-18T04:15:06;4.90;1.00
20349;DHT22;10332;50.208;18.988;2023-11-18T04:17:33;4.80;1.00
20349;DHT22;10332;50.208;18.988;2023-11-18T04:20:01;4.80;1.00
20349;DHT22;10332;50.208;18.988;2023-11-18T04:22:31;4.80;1.00
20349;DHT22;10332;50.208;18.988;2023-11-18T04:24:59;4.80;1.00
20349;DHT22;10332;50.208;18.988;2023-11-18T04:27:26;4.80;1.00
20349;DHT22;10332;50.208;18.988;2023-11-18T04:29:53;4.80;1.00
20349;DHT22;10332;50.208;18.988;2023-11-18T04:32:21;4.80;1.00
20349;DHT22;10332;50.208;18.988;2023-11-18T04:34:49;4.80;1.00
20349;DHT22;10332;50.208;18.988;2023-11-18T04:37:18;4.80;1.00
20349;DHT22;10332;50.208;18.988;2023-11-18T04:39:45;4.80;1.00
20349;DHT22;10332;50.208;18.988;2023-11-18T04:42:13;4.80;1.00
20349;DHT22;10332;50.208;18.988;2023-11-18T04:44:40;4.80;1.00
20349;DHT22;10332;50.208;18.988;2023-11-18T04:47:09;4.80;1.00
20349;DHT22;10332;50.208;18.988;2023-11-18T04:49:38;4.90;1.00
20349;DHT22;10332;50.208;18.988;2023-11-18T04:52:06;4.90;1.00
20349;DHT22;10332;50.208;18.988;2023-11-18T04:54:34;4.90;1.00
20349;DHT22;10332;50.208;18.988;2023-11-18T04:57:01;4.90;1.00
20349;DHT22;10332;50.208;18.988;2023-11-18T04:59:29;4.90;1.00
20349;DHT22;10332;50.208;18.988;2023-11-18T05:01:57;4.90;1.00
20349;DHT22;10332;50.208;18.988;2023-11-18T05:04:25;4.90;1.00
20349;DHT22;10332;50.208;18.988;2023-11-18T05:06:52;4.90;1.00
20349;DHT22;10332;50.208;18.988;2023-11-18T05:09:20;4.90;1.00
20349;DHT22;10332;50.208;18.988;2023-11-18T05:11:47;4.90;1.00
20349;DHT22;10332;50.208;18.988;2023-11-18T05:14:16;4.90;1.00
20349;DHT22;10332;50.208;18.988;2023-11-18T05:16:44;4.90;1.00
20349;DHT22;10332;50.208;18.988;2023-11-18T05:19:11;5.00;1.00
20349;DHT22;10332;50.208;18.988;2023-11-18T05:21:39;5.00;1.00
20349;DHT22;10332;50.208;18.988;2023-11-18T05:24:06;5.00;1.00
20349;DHT22;10332;50.208;18.988;2023-11-18T05:26:55;5.00;1.00
20349;DHT22;10332;50.208;18.988;2023-11-18T05:29:23;5.00;1.00
20349;DHT22;10332;50.208;18.988;2023-11-18T05:31:51;5.00;1.00
20349;DHT22;10332;50.208;18.988;2023-11-18T05:34:19;5.10;1.00
20349;DHT22;10332;50.208;18.988;2023-11-18T05:36:48;5.10;1.00
20349;DHT22;10332;50.208;18.988;2023-11-18T05:39:18;5.10;1.00
20349;DHT22;10332;50.208;18.988;2023-11-18T05:41:47;5.10;1.00
20349;DHT22;10332;50.208;18.988;2023-11-18T05:44:17;5.10;1.00
20349;DHT22;10332;50.208;18.988;2023-11-18T05:46:46;5.10;1.00
20349;DHT22;10332;50.208;18.988;2023-11-18T05:49:14;5.10;1.00
20349;DHT22;10332;50.208;18.988;2023-11-18T05:51:41;5.10;1.00
20349;DHT22;10332;50.208;18.988;2023-11-18T05:54:09;5.10;1.00
20349;DHT22;10332;50.208;18.988;2023-11-18T05:56:37;5.10;1.00
20349;DHT22;10332;50.208;18.988;2023-11-18T05:59:04;5.10;1.00
20349;DHT22;10332;50.208;18.988;2023-11-18T06:01:32;5.10;1.00
20349;DHT22;10332;50.208;18.988;2023-11-18T06:04:00;5.10;1.00
20349;DHT22;10332;50.208;18.988;2023-11-18T06:06:28;5.10;1.00
20349;DHT22;10332;50.208;18.988;2023-11-18T06:08:55;5.00;1.00
20349;DHT22;10332;50.208;18.988;2023-11-18T06:11:27;5.00;1.00
20349;DHT22;10332;50.208;18.988;2023-11-18T06:13:56;5.00;1.00
20349;DHT22;10332;50.208;18.988;2023-11-18T06:16:25;5.00;1.00
20349;DHT22;10332;50.208;18.988;2023-11-18T06:18:54;5.10;1.00
20349;DHT22;10332;50.208;18.988;2023-11-18T06:21:24;5.00;1.00
20349;DHT22;10332;50.208;18.988;2023-11-18T06:23:52;5.00;1.00
20349;DHT22;10332;50.208;18.988;2023-11-18T06:26:22;5.00;1.00
20349;DHT22;10332;50.208;18.988;2023-11-18T06:28:52;5.10;1.00
20349;DHT22;10332;50.208;18.988;2023-11-18T06:31:20;5.10;1.00
20349;DHT22;10332;50.208;18.988;2023-11-18T06:33:48;5.10;1.00
20349;DHT22;10332;50.208;18.988;2023-11-18T06:38:49;5.10;1.00
20349;DHT22;10332;50.208;18.988;2023-11-18T06:41:21;5.10;1.00
20349;DHT22;10332;50.208;18.988;2023-11-18T06:43:51;5.20;1.00
20349;DHT22;10332;50.208;18.988;2023-11-18T06:46:20;5.20;1.00
20349;DHT22;10332;50.208;18.988;2023-11-18T06:48:54;5.30;1.00
20349;DHT22;10332;50.208;18.988;2023-11-18T06:51:22;5.40;1.00
20349;DHT22;10332;50.208;18.988;2023-11-18T06:53:53;5.50;1.00
20349;DHT22;10332;50.208;18.988;2023-11-18T06:56:27;5.50;1.00
20349;DHT22;10332;50.208;18.988;2023-11-18T06:58:55;5.60;1.00
20349;DHT22;10332;50.208;18.988;2023-11-18T07:01:22;5.60;1.00
20349;DHT22;10332;50.208;18.988;2023-11-18T07:03:50;5.60;1.00
20349;DHT22;10332;50.208;18.988;2023-11-18T07:06:20;5.70;1.00
20349;DHT22;10332;50.208;18.988;2023-11-18T07:08:55;5.70;99.90
20349;DHT22;10332;50.208;18.988;2023-11-18T07:11:27;5.70;99.90
20349;DHT22;10332;50.208;18.988;2023-11-18T07:13:55;5.80;99.90
20349;DHT22;10332;50.208;18.988;2023-11-18T07:16:24;5.80;99.90
20349;DHT22;10332;50.208;18.988;2023-11-18T07:18:52;5.80;96.70
20349;DHT22;10332;50.208;18.988;2023-11-18T07:21:20;5.70;1.00
20349;DHT22;10332;50.208;18.988;2023-11-18T07:23:48;5.70;29.10
20349;DHT22;10332;50.208;18.988;2023-11-18T07:26:15;5.60;1.00
20349;DHT22;10332;50.208;18.988;2023-11-18T07:28:42;5.60;1.00
20349;DHT22;10332;50.208;18.988;2023-11-18T07:31:11;5.50;1.00
20349;DHT22;10332;50.208;18.988;2023-11-18T07:33:39;5.50;1.00
20349;DHT22;10332;50.208;18.988;2023-11-18T07:36:10;5.50;1.00
20349;DHT22;10332;50.208;18.988;2023-11-18T07:38:39;5.60;1.00
20349;DHT22;10332;50.208;18.988;2023-11-18T07:41:06;5.80;1.00
20349;DHT22;10332;50.208;18.988;2023-11-18T07:43:36;6.00;1.00
20349;DHT22;10332;50.208;18.988;2023-11-18T07:46:08;6.10;1.00
20349;DHT22;10332;50.208;18.988;2023-11-18T07:48:35;6.10;1.00
20349;DHT22;10332;50.208;18.988;2023-11-18T07:51:03;6.20;1.00
20349;DHT22;10332;50.208;18.988;2023-11-18T07:53:30;6.30;99.90
20349;DHT22;10332;50.208;18.988;2023-11-18T07:55:58;6.40;73.70
20349;DHT22;10332;50.208;18.988;2023-11-18T07:58:26;6.50;99.90
20349;DHT22;10332;50.208;18.988;2023-11-18T08:00:54;6.70;17.80
20349;DHT22;10332;50.208;18.988;2023-11-18T08:03:22;6.80;99.90
20349;DHT22;10332;50.208;18.988;2023-11-18T08:05:49;6.80;1.00
20349;DHT22;10332;50.208;18.988;2023-11-18T08:08:18;6.80;1.00
20349;DHT22;10332;50.208;18.988;2023-11-18T08:10:45;6.70;1.00
20349;DHT22;10332;50.208;18.988;2023-11-18T08:13:15;6.60;25.00
20349;DHT22;10332;50.208;18.988;2023-11-18T08:15:43;6.50;1.00
20349;DHT22;10332;50.208;18.988;2023-11-18T08:18:14;6.40;1.00
20349;DHT22;10332;50.208;18.988;2023-11-18T08:20:42;6.30;99.90
20349;DHT22;10332;50.208;18.988;2023-11-18T08:23:10;6.20;99.90
20349;DHT22;10332;50.208;18.988;2023-11-18T08:25:38;6.20;99.90
20349;DHT22;10332;50.208;18.988;2023-11-18T08:28:08;6.30;99.90
20349;DHT22;10332;50.208;18.988;2023-11-18T08:30:37;6.40;85.70
20349;DHT22;10332;50.208;18.988;2023-11-18T08:33:05;6.40;99.90
20349;DHT22;10332;50.208;18.988;2023-11-18T08:35:36;6.40;99.90
20349;DHT22;10332;50.208;18.988;2023-11-18T08:38:04;6.30;99.90
20349;DHT22;10332;50.208;18.988;2023-11-18T08:40:34;6.20;1.00
20349;DHT22;10332;50.208;18.988;2023-11-18T08:43:03;6.20;99.90
20349;DHT22;10332;50.208;18.988;2023-11-18T08:45:35;6.20;1.00
20349;DHT22;10332;50.208;18.988;2023-11-18T08:48:04;6.10;99.90
20349;DHT22;10332;50.208;18.988;2023-11-18T08:50:36;6.00;1.00
20349;DHT22;10332;50.208;18.988;2023-11-18T08:53:05;6.00;39.60
20349;DHT22;10332;50.208;18.988;2023-11-18T08:55:37;5.90;99.90
20349;DHT22;10332;50.208;18.988;2023-11-18T08:58:11;5.80;1.00
20349;DHT22;10332;50.208;18.988;2023-11-18T09:00:52;5.80;1.00
20349;DHT22;10332;50.208;18.988;2023-11-18T09:03:24;5.70;99.90
20349;DHT22;10332;50.208;18.988;2023-11-18T09:05:59;5.80;99.90
20349;DHT22;10332;50.208;18.988;2023-11-18T09:08:36;5.80;99.90
20349;DHT22;10332;50.208;18.988;2023-11-18T09:11:05;5.90;1.00
20349;DHT22;10332;50.208;18.988;2023-11-18T09:13:34;6.00;1.00
20349;DHT22;10332;50.208;18.988;2023-11-18T09:16:06;5.90;1.00
20349;DHT22;10332;50.208;18.988;2023-11-18T09:18:40;5.80;1.00
20349;DHT22;10332;50.208;18.988;2023-11-18T09:21:10;5.70;99.90
20349;DHT22;10332;50.208;18.988;2023-11-18T09:23:52;5.60;99.90
20349;DHT22;10332;50.208;18.988;2023-11-18T09:26:20;5.60;1.00
20349;DHT22;10332;50.208;18.988;2023-11-18T09:28:49;5.70;1.00
20349;DHT22;10332;50.208;18.988;2023-11-18T09:31:17;5.70;1.00
20349;DHT22;10332;50.208;18.988;2023-11-18T09:33:45;5.70;99.90
20349;DHT22;10332;50.208;18.988;2023-11-18T09:36:20;5.70;1.00
20349;DHT22;10332;50.208;18.988;2023-11-18T09:38:49;5.60;1.00
20349;DHT22;10332;50.208;18.988;2023-11-18T09:41:23;5.50;99.90
20349;DHT22;10332;50.208;18.988;2023-11-18T09:43:55;5.60;99.90
20349;DHT22;10332;50.208;18.988;2023-11-18T09:46:25;5.50;1.00
20349;DHT22;10332;50.208;18.988;2023-11-18T09:49:25;5.60;1.00
20349;DHT22;10332;50.208;18.988;2023-11-18T09:52:03;5.60;1.00
20349;DHT22;10332;50.208;18.988;2023-11-18T09:57:05;5.60;1.00
20349;DHT22;10332;50.208;18.988;2023-11-18T09:59:54;5.60;1.00
20349;DHT22;10332;50.208;18.988;2023-11-18T10:02:25;5.50;1.00
20349;DHT22;10332;50.208;18.988;2023-11-18T10:04:54;5.40;94.60
20349;DHT22;10332;50.208;18.988;2023-11-18T10:07:28;5.40;1.00
20349;DHT22;10332;50.208;18.988;2023-11-18T10:10:00;5.30;1.00
20349;DHT22;10332;50.208;18.988;2023-11-18T10:12:29;5.30;99.90
20349;DHT22;10332;50.208;18.988;2023-11-18T10:14:57;5.40;1.00
20349;DHT22;10332;50.208;18.988;2023-11-18T10:17:26;5.50;99.90
20349;DHT22;10332;50.208;18.988;2023-11-18T10:19:57;5.40;1.00
20349;DHT22;10332;50.208;18.988;2023-11-18T10:22:28;5.50;1.00
20349;DHT22;10332;50.208;18.988;2023-11-18T10:24:57;5.50;1.00
20349;DHT22;10332;50.208;18.988;2023-11-18T10:27:28;5.40;1.00
20349;DHT22;10332;50.208;18.988;2023-11-18T10:29:57;5.40;1.00
20349;DHT22;10332;50.208;18.988;2023-11-18T10:32:25;5.30;1.00
20349;DHT22;10332;50.208;18.988;2023-11-18T10:34:57;5.20;99.90
20349;DHT22;10332;50.208;18.988;2023-11-18T10:37:25;5.20;99.90
20349;DHT22;10332;50.208;18.988;2023-11-18T10:39:53;5.20;99.90
20349;DHT22;10332;50.208;18.988;2023-11-18T10:42:20;5.10;99.90
20349;DHT22;10332;50.208;18.988;2023-11-18T10:45:08;5.10;1.00
20349;DHT22;10332;50.208;18.988;2023-11-18T10:47:42;5.10;1.00
20349;DHT22;10332;50.208;18.988;2023-11-18T10:50:10;5.00;1.00
20349;DHT22;10332;50.208;18.988;2023-11-18T10:52:38;5.00;1.00
20349;DHT22;10332;50.208;18.988;2023-11-18T10:55:09;5.00;1.00
20349;DHT22;10332;50.208;18.988;2023-11-18T10:57:40;5.00;99.90
20349;DHT22;10332;50.208;18.988;2023-11-18T11:00:10;5.00;99.90
20349;DHT22;10332;50.208;18.988;2023-11-18T11:02:42;5.00;1.00
20349;DHT22;10332;50.208;18.988;2023-11-18T11:05:11;5.10;99.90
20349;DHT22;10332;50.208;18.988;2023-11-18T11:07:48;5.00;99.90
20349;DHT22;10332;50.208;18.988;2023-11-18T11:10:17;5.00;99.90
20349;DHT22;10332;50.208;18.988;2023-11-18T11:12:54;5.00;99.90
20349;DHT22;10332;50.208;18.988;2023-11-18T11:15:26;5.00;1.00
20349;DHT22;10332;50.208;18.988;2023-11-18T11:18:03;5.00;1.00
20349;DHT22;10332;50.208;18.988;2023-11-18T11:20:41;4.90;1.00
20349;DHT22;10332;50.208;18.988;2023-11-18T11:23:23;4.80;1.00
20349;DHT22;10332;50.208;18.988;2023-11-18T11:26:10;4.80;90.30
20349;DHT22;10332;50.208;18.988;2023-11-18T11:28:52;4.90;99.90
20349;DHT22;10332;50.208;18.988;2023-11-18T11:31:52;4.90;1.00
20349;DHT22;10332;50.208;18.988;2023-11-18T11:34:26;4.80;99.90
20349;DHT22;10332;50.208;18.988;2023-11-18T11:36:59;4.90;1.00
20349;DHT22;10332;50.208;18.988;2023-11-18T11:39:28;4.90;92.10
20349;DHT22;10332;50.208;18.988;2023-11-18T11:41:57;5.00;99.90
20349;DHT22;10332;50.208;18.988;2023-11-18T11:44:26;5.10;99.90
20349;DHT22;10332;50.208;18.988;2023-11-18T11:46:59;5.20;99.90
20349;DHT22;10332;50.208;18.988;2023-11-18T11:49:39;5.30;1.00
20349;DHT22;10332;50.208;18.988;2023-11-18T11:52:30;5.30;1.00
20349;DHT22;10332;50.208;18.988;2023-11-18T11:55:09;5.40;99.90
20349;DHT22;10332;50.208;18.988;2023-11-18T11:57:40;5.30;99.90
20349;DHT22;10332;50.208;18.988;2023-11-18T12:00:10;5.20;1.00
20349;DHT22;10332;50.208;18.988;2023-11-18T12:02:49;5.10;1.00
20349;DHT22;10332;50.208;18.988;2023-11-18T12:05:19;5.00;1.00
20349;DHT22;10332;50.208;18.988;2023-11-18T12:07:47;4.90;1.00
20349;DHT22;10332;50.208;18.988;2023-11-18T12:10:15;4.80;1.00
20349;DHT22;10332;50.208;18.988;2023-11-18T12:12:48;4.70;1.00
20349;DHT22;10332;50.208;18.988;2023-11-18T12:15:52;4.70;1.00
20349;DHT22;10332;50.208;18.988;2023-11-18T12:18:25;4.70;1.00
20349;DHT22;10332;50.208;18.988;2023-11-18T12:20:52;4.60;1.00
20349;DHT22;10332;50.208;18.988;2023-11-18T12:23:24;4.60;1.00
20349;DHT22;10332;50.208;18.988;2023-11-18T12:25:54;4.60;1.00
20349;DHT22;10332;50.208;18.988;2023-11-18T12:28:30;4.60;1.00
20349;DHT22;10332;50.208;18.988;2023-11-18T12:31:04;4.60;1.00
20349;DHT22;10332;50.208;18.988;2023-11-18T12:42:08;4.50;99.90
20349;DHT22;10332;50.208;18.988;2023-11-18T12:47:47;4.50;99.90
20349;DHT22;10332;50.208;18.988;2023-11-18T12:50:16;4.40;99.90
20349;DHT22;10332;50.208;18.988;2023-11-18T12:52:52;4.40;1.00
20349;DHT22;10332;50.208;18.988;2023-11-18T12:55:20;4.40;1.00
20349;DHT22;10332;50.208;18.988;2023-11-18T12:57:48;4.40;99.90
20349;DHT22;10332;50.208;18.988;2023-11-18T13:00:16;4.50;1.00
20349;DHT22;10332;50.208;18.988;2023-11-18T13:02:49;4.40;1.00
20349;DHT22;10332;50.208;18.988;2023-11-18T13:05:16;4.40;99.90
20349;DHT22;10332;50.208;18.988;2023-11-18T13:07:44;4.50;1.00
20349;DHT22;10332;50.208;18.988;2023-11-18T13:10:12;4.50;1.00
20349;DHT22;10332;50.208;18.988;2023-11-18T13:12:43;4.50;1.00
20349;DHT22;10332;50.208;18.988;2023-11-18T13:15:12;4.50;1.00
20349;DHT22;10332;50.208;18.988;2023-11-18T13:17:39;4.50;1.00
20349;DHT22;10332;50.208;18.988;2023-11-18T13:20:12;4.40;1.00
20349;DHT22;10332;50.208;18.988;2023-11-18T13:22:42;4.50;1.00
20349;DHT22;10332;50.208;18.988;2023-11-18T13:25:15;4.50;99.90
20349;DHT22;10332;50.208;18.988;2023-11-18T13:27:44;4.50;99.90
20349;DHT22;10332;50.208;18.988;2023-11-18T13:30:13;4.50;22.20
20349;DHT22;10332;50.208;18.988;2023-11-18T13:32:44;4.50;99.90
20349;DHT22;10332;50.208;18.988;2023-11-18T13:35:13;4.50;99.90
20349;DHT22;10332;50.208;18.988;2023-11-18T13:37:40;4.50;1.00
20349;DHT22;10332;50.208;18.988;2023-11-18T13:40:09;4.50;84.50
20349;DHT22;10332;50.208;18.988;2023-11-18T13:42:36;4.50;99.90
20349;DHT22;10332;50.208;18.988;2023-11-18T13:45:12;4.50;99.90
20349;DHT22;10332;50.208;18.988;2023-11-18T13:48:00;4.50;1.00
20349;DHT22;10332;50.208;18.988;2023-11-18T13:50:28;4.50;1.00
20349;DHT22;10332;50.208;18.988;2023-11-18T13:52:56;4.50;1.00
20349;DHT22;10332;50.208;18.988;2023-11-18T13:55:24;4.50;1.00
20349;DHT22;10332;50.208;18.988;2023-11-18T13:57:56;4.50;1.00
20349;DHT22;10332;50.208;18.988;2023-11-18T14:00:26;4.50;1.00
20349;DHT22;10332;50.208;18.988;2023-11-18T14:02:58;4.50;1.00
20349;DHT22;10332;50.208;18.988;2023-11-18T14:05:27;4.50;1.00
20349;DHT22;10332;50.208;18.988;2023-11-18T14:07:57;4.50;1.00
20349;DHT22;10332;50.208;18.988;2023-11-18T14:10:27;4.50;1.00
20349;DHT22;10332;50.208;18.988;2023-11-18T14:13:02;4.50;1.00
20349;DHT22;10332;50.208;18.988;2023-11-18T14:15:30;4.40;1.00
20349;DHT22;10332;50.208;18.988;2023-11-18T14:17:57;4.40;99.90
20349;DHT22;10332;50.208;18.988;2023-11-18T14:20:25;4.40;99.90
20349;DHT22;10332;50.208;18.988;2023-11-18T14:22:52;4.40;1.00
20349;DHT22;10332;50.208;18.988;2023-11-18T14:25:22;4.50;1.00
20349;DHT22;10332;50.208;18.988;2023-11-18T14:27:51;4.50;89.50
20349;DHT22;10332;50.208;18.988;2023-11-18T14:30:19;4.50;1.00
20349;DHT22;10332;50.208;18.988;2023-11-18T14:32:46;4.50;99.90
20349;DHT22;10332;50.208;18.988;2023-11-18T14:35:14;4.50;99.90
20349;DHT22;10332;50.208;18.988;2023-11-18T14:37:44;4.50;1.00
20349;DHT22;10332;50.208;18.988;2023-11-18T14:40:13;4.50;34.80
20349;DHT22;10332;50.208;18.988;2023-11-18T14:42:50;4.50;1.00
20349;DHT22;10332;50.208;18.988;2023-11-18T14:45:19;4.50;1.00
20349;DHT22;10332;50.208;18.988;2023-11-18T14:47:47;4.50;1.00
20349;DHT22;10332;50.208;18.988;2023-11-18T14:50:20;4.60;55.80
20349;DHT22;10332;50.208;18.988;2023-11-18T14:52:49;4.60;52.00
20349;DHT22;10332;50.208;18.988;2023-11-18T14:55:18;4.50;1.00
20349;DHT22;10332;50.208;18.988;2023-11-18T14:57:45;4.50;1.00
20349;DHT22;10332;50.208;18.988;2023-11-18T15:00:14;4.60;94.50
20349;DHT22;10332;50.208;18.988;2023-11-18T15:02:49;4.60;1.00
20349;DHT22;10332;50.208;18.988;2023-11-18T15:05:24;4.60;1.00
20349;DHT22;10332;50.208;18.988;2023-11-18T15:07:54;4.60;1.00
20349;DHT22;10332;50.208;18.988;2023-11-18T15:10:24;4.60;1.00
20349;DHT22;10332;50.208;18.988;2023-11-18T15:12:53;4.60;1.00
20349;DHT22;10332;50.208;18.988;2023-11-18T15:15:23;4.60;1.00
20349;DHT22;10332;50.208;18.988;2023-11-18T15:18:03;4.60;99.90
20349;DHT22;10332;50.208;18.988;2023-11-18T15:20:31;4.60;99.90
20349;DHT22;10332;50.208;18.988;2023-11-18T15:22:59;4.60;81.70
20349;DHT22;10332;50.208;18.988;2023-11-18T15:25:27;4.60;99.90
20349;DHT22;10332;50.208;18.988;2023-11-18T15:27:55;4.60;99.90
20349;DHT22;10332;50.208;18.988;2023-11-18T15:30:23;4.60;99.90
20349;DHT22;10332;50.208;18.988;2023-11-18T15:32:54;4.60;92.70
20349;DHT22;10332;50.208;18.988;2023-11-18T15:35:22;4.60;1.00
20349;DHT22;10332;50.208;18.988;2023-11-18T15:37:50;4.60;1.00
20349;DHT22;10332;50.208;18.988;2023-11-18T15:40:19;4.60;99.90
20349;DHT22;10332;50.208;18.988;2023-11-18T15:42:48;4.60;99.90
20349;DHT22;10332;50.208;18.988;2023-11-18T15:45:20;4.60;99.90
20349;DHT22;10332;50.208;18.988;2023-11-18T15:47:47;4.60;99.90
20349;DHT22;10332;50.208;18.988;2023-11-18T15:50:18;4.60;99.90
20349;DHT22;10332;50.208;18.988;2023-11-18T15:52:49;4.60;58.30
20349;DHT22;10332;50.208;18.988;2023-11-18T15:55:17;4.60;1.00
20349;DHT22;10332;50.208;18.988;2023-11-18T15:57:46;4.50;1.00
20349;DHT22;10332;50.208;18.988;2023-11-18T16:00:22;4.60;99.90
20349;DHT22;10332;50.208;18.988;2023-11-18T16:02:53;4.50;99.90
20349;DHT22;10332;50.208;18.988;2023-11-18T16:05:27;4.60;99.90
20349;DHT22;10332;50.208;18.988;2023-11-18T16:07:55;4.50;99.90
20349;DHT22;10332;50.208;18.988;2023-11-18T16:10:25;4.50;1.00
20349;DHT22;10332;50.208;18.988;2023-11-18T16:12:57;4.40;99.90
20349;DHT22;10332;50.208;18.988;2023-11-18T16:15:29;4.40;99.90
20349;DHT22;10332;50.208;18.988;2023-11-18T16:17:57;4.30;1.00